sensor_id;sensor_type;location;lat;lon;timestamp;temperature;humidity
13433;DHT22;6789;47.678;9.158;2022-09-03T00:01:47;16.80;99.90
13433;DHT22;6789;47.678;9.158;2022-09-03T00:07:44;16.90;99.90
13433;DHT22;6789;47.678;9.158;2022-09-03T00:13:39;16.80;99.90
13433;DHT22;6789;47.678;9.158;2022-09-03T00:19:23;16.80;99.90
13433;DHT22;6789;47.678;9.158;2022-09-03T00:25:02;16.70;99.90
13433;DHT22;6789;47.678;9.158;2022-09-03T00:30:51;16.80;99.90
13433;DHT22;6789;47.678;9.158;2022-09-03T00:36:40;16.90;99.90
13433;DHT22;6789;47.678;9.158;2022-09-03T00:48:28;17.00;99.90
13433;DHT22;6789;47.678;9.158;2022-09-03T00:53:51;17.00;99.90
13433;DHT22;6789;47.678;9.158;2022-09-03T01:00:12;17.00;99.90
13433;DHT22;6789;47.678;9.158;2022-09-03T01:10:56;17.30;99.90
13433;DHT22;6789;47.678;9.158;2022-09-03T01:16:23;17.20;99.90
13433;DHT22;6789;47.678;9.158;2022-09-03T01:32:59;17.20;99.90
13433;DHT22;6789;47.678;9.158;2022-09-03T01:54:42;17.40;99.90
13433;DHT22;6789;47.678;9.158;2022-09-03T01:59:41;17.50;99.90
13433;DHT22;6789;47.678;9.158;2022-09-03T02:10:40;17.40;99.90
13433;DHT22;6789;47.678;9.158;2022-09-03T02:16:21;17.50;99.90
13433;DHT22;6789;47.678;9.158;2022-09-03T02:21:19;17.50;99.90
13433;DHT22;6789;47.678;9.158;2022-09-03T02:26:15;17.60;99.90
13433;DHT22;6789;47.678;9.158;2022-09-03T02:31:26;17.50;99.90
13433;DHT22;6789;47.678;9.158;2022-09-03T02:36:41;17.60;99.90
13433;DHT22;6789;47.678;9.158;2022-09-03T02:42:01;17.50;99.90
13433;DHT22;6789;47.678;9.158;2022-09-03T02:46:57;17.60;99.90
13433;DHT22;6789;47.678;9.158;2022-09-03T02:51:50;17.60;99.90
13433;DHT22;6789;47.678;9.158;2022-09-03T02:56:56;17.60;99.90
13433;DHT22;6789;47.678;9.158;2022-09-03T03:01:48;17.50;99.90
13433;DHT22;6789;47.678;9.158;2022-09-03T03:06:56;17.50;99.90
13433;DHT22;6789;47.678;9.158;2022-09-03T03:12:03;17.50;99.90
13433;DHT22;6789;47.678;9.158;2022-09-03T03:17:12;17.60;99.90
13433;DHT22;6789;47.678;9.158;2022-09-03T03:22:06;17.50;99.90
13433;DHT22;6789;47.678;9.158;2022-09-03T03:27:33;17.30;99.90
13433;DHT22;6789;47.678;9.158;2022-09-03T03:32:27;17.20;99.90
13433;DHT22;6789;47.678;9.158;2022-09-03T03:37:49;17.20;99.90
13433;DHT22;6789;47.678;9.158;2022-09-03T03:42:41;17.20;99.90
13433;DHT22;6789;47.678;9.158;2022-09-03T03:54:13;17.20;99.90
13433;DHT22;6789;47.678;9.158;2022-09-03T03:59:41;17.20;99.90
13433;DHT22;6789;47.678;9.158;2022-09-03T04:04:33;17.40;99.90
13433;DHT22;6789;47.678;9.158;2022-09-03T04:09:40;17.20;99.90
13433;DHT22;6789;47.678;9.158;2022-09-03T04:14:57;17.30;99.90
13433;DHT22;6789;47.678;9.158;2022-09-03T04:20:05;17.10;99.90
13433;DHT22;6789;47.678;9.158;2022-09-03T04:25:19;17.10;99.90
13433;DHT22;6789;47.678;9.158;2022-09-03T04:30:36;17.20;99.90
13433;DHT22;6789;47.678;9.158;2022-09-03T04:35:43;17.20;99.90
13433;DHT22;6789;47.678;9.158;2022-09-03T04:40:54;17.10;99.90
13433;DHT22;6789;47.678;9.158;2022-09-03T04:46:11;17.00;99.90
13433;DHT22;6789;47.678;9.158;2022-09-03T04:51:28;17.10;99.90
13433;DHT22;6789;47.678;9.158;2022-09-03T04:56:38;17.10;99.90
13433;DHT22;6789;47.678;9.158;2022-09-03T05:01:45;17.10;99.90
13433;DHT22;6789;47.678;9.158;2022-09-03T05:06:51;17.00;99.90
13433;DHT22;6789;47.678;9.158;2022-09-03T05:11:57;16.90;99.90
13433;DHT22;6789;47.678;9.158;2022-09-03T05:17:03;16.90;99.90
13433;DHT22;6789;47.678;9.158;2022-09-03T05:22:09;16.90;99.90
13433;DHT22;6789;47.678;9.158;2022-09-03T05:27:15;16.90;99.90
13433;DHT22;6789;47.678;9.158;2022-09-03T05:32:23;16.90;99.90
13433;DHT22;6789;47.678;9.158;2022-09-03T05:37:32;16.90;99.90
13433;DHT22;6789;47.678;9.158;2022-09-03T05:42:38;17.00;99.90
13433;DHT22;6789;47.678;9.158;2022-09-03T05:47:48;16.90;99.90
13433;DHT22;6789;47.678;9.158;2022-09-03T05:52:54;17.00;99.90
13433;DHT22;6789;47.678;9.158;2022-09-03T05:58:03;17.10;99.90
13433;DHT22;6789;47.678;9.158;2022-09-03T06:03:09;17.30;99.90
13433;DHT22;6789;47.678;9.158;2022-09-03T06:08:15;17.50;99.90
13433;DHT22;6789;47.678;9.158;2022-09-03T06:13:21;17.60;99.90
13433;DHT22;6789;47.678;9.158;2022-09-03T06:18:28;17.80;99.90
13433;DHT22;6789;47.678;9.158;2022-09-03T06:23:35;18.00;99.90
13433;DHT22;6789;47.678;9.158;2022-09-03T06:28:42;18.40;99.90
13433;DHT22;6789;47.678;9.158;2022-09-03T06:33:50;18.60;99.90
13433;DHT22;6789;47.678;9.158;2022-09-03T06:38:59;18.60;99.90
13433;DHT22;6789;47.678;9.158;2022-09-03T06:44:07;18.60;99.90
13433;DHT22;6789;47.678;9.158;2022-09-03T06:49:16;18.60;99.90
13433;DHT22;6789;47.678;9.158;2022-09-03T06:54:25;18.30;99.90
13433;DHT22;6789;47.678;9.158;2022-09-03T06:59:31;18.40;99.90
13433;DHT22;6789;47.678;9.158;2022-09-03T07:04:42;18.30;99.90
13433;DHT22;6789;47.678;9.158;2022-09-03T07:09:48;18.50;99.90
13433;DHT22;6789;47.678;9.158;2022-09-03T07:14:54;18.70;99.90
13433;DHT22;6789;47.678;9.158;2022-09-03T07:20:00;18.90;99.90
13433;DHT22;6789;47.678;9.158;2022-09-03T07:25:06;19.10;99.90
13433;DHT22;6789;47.678;9.158;2022-09-03T07:30:12;19.50;99.90
13433;DHT22;6789;47.678;9.158;2022-09-03T07:35:18;19.50;99.90
13433;DHT22;6789;47.678;9.158;2022-09-03T07:40:24;19.30;99.90
13433;DHT22;6789;47.678;9.158;2022-09-03T07:46:03;19.40;99.90
13433;DHT22;6789;47.678;9.158;2022-09-03T07:51:11;19.70;99.90
13433;DHT22;6789;47.678;9.158;2022-09-03T07:56:17;19.80;99.90
13433;DHT22;6789;47.678;9.158;2022-09-03T08:01:25;19.80;99.90
13433;DHT22;6789;47.678;9.158;2022-09-03T08:06:38;19.80;99.90
13433;DHT22;6789;47.678;9.158;2022-09-03T08:11:45;20.10;99.90
13433;DHT22;6789;47.678;9.158;2022-09-03T08:16:55;20.20;99.90
13433;DHT22;6789;47.678;9.158;2022-09-03T08:22:24;20.20;99.90
13433;DHT22;6789;47.678;9.158;2022-09-03T08:28:00;20.70;99.90
13433;DHT22;6789;47.678;9.158;2022-09-03T08:33:15;21.30;99.90
13433;DHT22;6789;47.678;9.158;2022-09-03T08:38:23;21.60;99.90
13433;DHT22;6789;47.678;9.158;2022-09-03T08:43:32;21.30;99.90
13433;DHT22;6789;47.678;9.158;2022-09-03T08:49:14;21.30;99.90
13433;DHT22;6789;47.678;9.158;2022-09-03T09:23:26;21.20;99.90
13433;DHT22;6789;47.678;9.158;2022-09-03T09:29:07;21.60;99.90
13433;DHT22;6789;47.678;9.158;2022-09-03T09:34:26;21.60;99.90
13433;DHT22;6789;47.678;9.158;2022-09-03T09:39:34;21.60;99.90
13433;DHT22;6789;47.678;9.158;2022-09-03T09:44:41;21.70;99.90
13433;DHT22;6789;47.678;9.158;2022-09-03T09:50:03;21.80;99.90
13433;DHT22;6789;47.678;9.158;2022-09-03T09:56:06;22.30;99.90
13433;DHT22;6789;47.678;9.158;2022-09-03T10:01:21;22.80;99.90
13433;DHT22;6789;47.678;9.158;2022-09-03T10:06:35;22.90;99.90
13433;DHT22;6789;47.678;9.158;2022-09-03T10:12:19;23.40;99.90
13433;DHT22;6789;47.678;9.158;2022-09-03T10:23:19;23.60;99.90
13433;DHT22;6789;47.678;9.158;2022-09-03T10:28:31;23.00;99.90
13433;DHT22;6789;47.678;9.158;2022-09-03T10:39:43;21.30;99.90
13433;DHT22;6789;47.678;9.158;2022-09-03T10:50:54;20.60;99.90
13433;DHT22;6789;47.678;9.158;2022-09-03T10:56:21;20.80;99.90
13433;DHT22;6789;47.678;9.158;2022-09-03T11:07:03;20.80;99.90
13433;DHT22;6789;47.678;9.158;2022-09-03T11:12:27;21.20;99.90
13433;DHT22;6789;47.678;9.158;2022-09-03T11:17:53;21.40;99.90
13433;DHT22;6789;47.678;9.158;2022-09-03T11:23:09;21.90;99.90
13433;DHT22;6789;47.678;9.158;2022-09-03T11:34:24;22.50;99.90
13433;DHT22;6789;47.678;9.158;2022-09-03T11:39:38;22.80;99.90
13433;DHT22;6789;47.678;9.158;2022-09-03T11:50:30;23.00;99.90
13433;DHT22;6789;47.678;9.158;2022-09-03T12:01:15;23.10;99.90
13433;DHT22;6789;47.678;9.158;2022-09-03T12:17:53;23.50;99.90
13433;DHT22;6789;47.678;9.158;2022-09-03T12:23:50;23.50;99.90
13433;DHT22;6789;47.678;9.158;2022-09-03T12:28:59;23.40;99.90
13433;DHT22;6789;47.678;9.158;2022-09-03T12:34:17;23.60;99.90
13433;DHT22;6789;47.678;9.158;2022-09-03T12:39:27;23.50;99.90
13433;DHT22;6789;47.678;9.158;2022-09-03T12:50:06;23.60;99.90
13433;DHT22;6789;47.678;9.158;2022-09-03T12:55:45;23.60;99.90
13433;DHT22;6789;47.678;9.158;2022-09-03T13:01:34;23.80;99.90
13433;DHT22;6789;47.678;9.158;2022-09-03T13:07:25;24.20;99.90
13433;DHT22;6789;47.678;9.158;2022-09-03T13:35:24;24.10;99.90
13433;DHT22;6789;47.678;9.158;2022-09-03T13:45:58;24.10;99.90
13433;DHT22;6789;47.678;9.158;2022-09-03T13:51:24;24.10;99.90
13433;DHT22;6789;47.678;9.158;2022-09-03T13:57:04;24.10;99.90
13433;DHT22;6789;47.678;9.158;2022-09-03T14:02:52;23.90;99.90
13433;DHT22;6789;47.678;9.158;2022-09-03T14:08:41;23.40;99.90
13433;DHT22;6789;47.678;9.158;2022-09-03T14:14:30;23.30;99.90
13433;DHT22;6789;47.678;9.158;2022-09-03T14:25:14;23.40;99.90
13433;DHT22;6789;47.678;9.158;2022-09-03T14:37:18;23.10;99.90
13433;DHT22;6789;47.678;9.158;2022-09-03T14:43:10;23.20;99.90
13433;DHT22;6789;47.678;9.158;2022-09-03T14:54:59;23.60;99.90
13433;DHT22;6789;47.678;9.158;2022-09-03T15:00:41;23.80;99.90
13433;DHT22;6789;47.678;9.158;2022-09-03T15:12:28;23.90;99.90
13433;DHT22;6789;47.678;9.158;2022-09-03T15:18:16;23.90;99.90
13433;DHT22;6789;47.678;9.158;2022-09-03T15:24:41;23.80;99.90
13433;DHT22;6789;47.678;9.158;2022-09-03T15:30:18;23.50;99.90
13433;DHT22;6789;47.678;9.158;2022-09-03T15:36:21;23.40;99.90
13433;DHT22;6789;47.678;9.158;2022-09-03T15:42:09;23.40;99.90
13433;DHT22;6789;47.678;9.158;2022-09-03T15:53:20;23.20;99.90
13433;DHT22;6789;47.678;9.158;2022-09-03T15:59:22;23.20;99.90
13433;DHT22;6789;47.678;9.158;2022-09-03T16:05:12;23.20;99.90
13433;DHT22;6789;47.678;9.158;2022-09-03T16:22:28;23.20;99.90
13433;DHT22;6789;47.678;9.158;2022-09-03T17:09:14;21.90;99.90
13433;DHT22;6789;47.678;9.158;2022-09-03T17:25:55;21.40;99.90
13433;DHT22;6789;47.678;9.158;2022-09-03T17:43:34;21.00;99.90
13433;DHT22;6789;47.678;9.158;2022-09-03T17:49:02;20.90;99.90
13433;DHT22;6789;47.678;9.158;2022-09-03T18:06:07;20.70;99.90
13433;DHT22;6789;47.678;9.158;2022-09-03T18:11:34;20.60;99.90
13433;DHT22;6789;47.678;9.158;2022-09-03T18:16:48;20.50;99.90
13433;DHT22;6789;47.678;9.158;2022-09-03T18:22:32;20.40;99.90
13433;DHT22;6789;47.678;9.158;2022-09-03T18:28:13;20.20;99.90
13433;DHT22;6789;47.678;9.158;2022-09-03T18:33:56;20.10;99.90
13433;DHT22;6789;47.678;9.158;2022-09-03T18:39:28;19.90;99.90
13433;DHT22;6789;47.678;9.158;2022-09-03T18:51:14;19.70;99.90
13433;DHT22;6789;47.678;9.158;2022-09-03T18:57:17;19.50;99.90
13433;DHT22;6789;47.678;9.158;2022-09-03T19:08:31;19.30;99.90
13433;DHT22;6789;47.678;9.158;2022-09-03T19:14:13;19.20;99.90
13433;DHT22;6789;47.678;9.158;2022-09-03T19:26:20;19.00;99.90
13433;DHT22;6789;47.678;9.158;2022-09-03T19:32:13;18.90;99.90
13433;DHT22;6789;47.678;9.158;2022-09-03T19:38:23;18.80;99.90
13433;DHT22;6789;47.678;9.158;2022-09-03T19:44:24;18.70;99.90
13433;DHT22;6789;47.678;9.158;2022-09-03T19:50:36;18.60;99.90
13433;DHT22;6789;47.678;9.158;2022-09-03T20:02:25;18.50;99.90
13433;DHT22;6789;47.678;9.158;2022-09-03T20:08:01;18.40;99.90
13433;DHT22;6789;47.678;9.158;2022-09-03T20:19:39;18.30;99.90
13433;DHT22;6789;47.678;9.158;2022-09-03T20:31:48;18.20;99.90
13433;DHT22;6789;47.678;9.158;2022-09-03T20:37:23;18.20;99.90
13433;DHT22;6789;47.678;9.158;2022-09-03T21:02:23;17.90;99.90
13433;DHT22;6789;47.678;9.158;2022-09-03T21:19:59;17.60;99.90
13433;DHT22;6789;47.678;9.158;2022-09-03T21:25:38;17.40;99.90
13433;DHT22;6789;47.678;9.158;2022-09-03T21:32:03;17.30;99.90
13433;DHT22;6789;47.678;9.158;2022-09-03T21:37:21;17.20;99.90
13433;DHT22;6789;47.678;9.158;2022-09-03T21:43:20;17.10;99.90
13433;DHT22;6789;47.678;9.158;2022-09-03T21:49:05;17.10;99.90
13433;DHT22;6789;47.678;9.158;2022-09-03T21:54:50;17.10;99.90
13433;DHT22;6789;47.678;9.158;2022-09-03T22:00:18;17.20;99.90
13433;DHT22;6789;47.678;9.158;2022-09-03T22:06:20;17.10;99.90
13433;DHT22;6789;47.678;9.158;2022-09-03T22:48:14;16.70;99.90
13433;DHT22;6789;47.678;9.158;2022-09-03T22:59:18;16.60;99.90
13433;DHT22;6789;47.678;9.158;2022-09-03T23:05:06;16.50;99.90
13433;DHT22;6789;47.678;9.158;2022-09-03T23:11:07;16.40;99.90
13433;DHT22;6789;47.678;9.158;2022-09-03T23:17:09;16.40;99.90
13433;DHT22;6789;47.678;9.158;2022-09-03T23:23:20;16.40;99.90
13433;DHT22;6789;47.678;9.158;2022-09-03T23:29:54;16.30;99.90
13433;DHT22;6789;47.678;9.158;2022-09-03T23:41:21;16.30;99.90
13433;DHT22;6789;47.678;9.158;2022-09-03T23:46:55;16.20;99.90
13433;DHT22;6789;47.678;9.158;2022-09-03T23:53:21;16.20;99.90
